CNT weather

Crows Nest Helipad
Crows Nest, Queensland, Australia

Public forecast

Using degrees Celsius for public forecast. Weather courtesy of forecast.io.

Closest aviation weather report (METAR) to Crows Nest Helipad

Closest report is Oakey Airport, 19.4 nm (35.9 km) WSW. Retrieved 2019/10/15 21:00 UTC (22 minutes ago):

YBOK 152100Z 02011KT 9999 FEW016 22/17 Q1016 NOSIG

Closest aviation forecast (TAF) to Crows Nest Helipad

Closest forecast is RAAF Base Amberley, 41.5 nm (76.8 km) ESE. Retrieved 2019/10/15 18:00 UTC (3 hours ago):

TAF YAMB 151604Z 1518/1612 VRB03KT 9999 MIFG FEW015 FM152100 VRB05KT 9999 SCT018 FM160000 36010KT 9999 SCT035 FM160400 02016KT 9999 FEW050 FM161000 04008KT CAVOK PROB30 1518/1521 0500 FG NSC